Time;durP1;ratioP1;P1;durP2;ratioP2;P2;SDS_P1;SDS_P2;PMS_P1;PMS_P2;Temp;Humidity;BMP_temperature;BMP_pressure;BME280_temperature;BME280_humidity;BME280_pressure;Samples;Min_cycle;Max_cycle;Signal;HPM_P1;HPM_P2
2024/03/30 00:00:04;;;;;;;1.38;0.90;;;12.50;99.90;;;;;;5088630;28;20396;-67
2024/03/30 00:02:29;;;;;;;2.50;0.80;;;12.50;99.90;;;;;;5088542;28;20166;-67
2024/03/30 00:04:55;;;;;;;2.90;0.80;;;12.50;99.90;;;;;;5088083;28;20016;-67
2024/03/30 00:07:21;;;;;;;1.02;0.70;;;12.40;99.90;;;;;;5082949;28;20391;-67
2024/03/30 00:09:48;;;;;;;1.17;0.73;;;12.40;99.90;;;;;;5079948;28;20036;-68
2024/03/30 00:12:13;;;;;;;1.25;0.80;;;12.40;99.90;;;;;;5083989;28;20127;-68
2024/03/30 00:14:39;;;;;;;2.63;0.95;;;12.50;99.90;;;;;;5077771;28;20107;-67
2024/03/30 00:17:05;;;;;;;2.05;0.77;;;12.40;99.90;;;;;;5087335;28;20036;-67
2024/03/30 00:19:30;;;;;;;0.98;0.88;;;12.40;99.90;;;;;;5071900;28;20503;-68
2024/03/30 00:21:56;;;;;;;0.70;0.70;;;12.40;99.90;;;;;;5080272;28;20037;-68
2024/03/30 00:24:21;;;;;;;1.67;1.02;;;12.40;99.90;;;;;;5087641;28;21336;-67
2024/03/30 00:26:47;;;;;;;2.75;0.90;;;12.40;99.90;;;;;;5087722;28;20020;-67
2024/03/30 00:29:13;;;;;;;1.92;0.95;;;12.40;99.90;;;;;;5086765;28;20107;-68
2024/03/30 00:31:38;;;;;;;4.30;1.50;;;12.40;99.90;;;;;;5087529;28;20026;-68
2024/03/30 00:34:04;;;;;;;0.63;0.60;;;12.30;99.90;;;;;;5080324;28;20047;-68
2024/03/30 00:36:29;;;;;;;3.33;0.93;;;12.40;99.90;;;;;;5074618;28;20060;-67
2024/03/30 00:38:55;;;;;;;0.65;0.50;;;12.40;99.90;;;;;;5085334;28;20484;-69
2024/03/30 00:41:21;;;;;;;1.40;0.68;;;12.40;99.90;;;;;;5088166;28;20036;-68
2024/03/30 00:43:46;;;;;;;1.08;0.90;;;12.40;99.90;;;;;;5082611;28;20070;-68
2024/03/30 00:46:12;;;;;;;2.33;0.80;;;12.40;99.90;;;;;;5088032;28;20085;-69
2024/03/30 00:48:37;;;;;;;2.25;1.00;;;12.50;99.90;;;;;;5079262;28;20029;-68
2024/03/30 00:51:03;;;;;;;2.42;1.08;;;12.40;99.90;;;;;;5086681;28;20116;-68
2024/03/30 00:53:29;;;;;;;2.83;1.00;;;12.40;99.90;;;;;;5087697;28;20492;-68
2024/03/30 00:55:59;;;;;;;4.72;0.60;;;12.40;99.90;;;;;;5087352;28;20024;-68
2024/03/30 00:58:24;;;;;;;2.65;0.80;;;12.60;99.90;;;;;;5084450;28;20070;-68
2024/03/30 01:00:50;;;;;;;1.10;0.70;;;12.50;99.90;;;;;;5062708;28;20032;-68
2024/03/30 01:03:16;;;;;;;1.50;0.90;;;12.50;99.90;;;;;;5087497;28;20113;-68
2024/03/30 01:05:42;;;;;;;1.05;0.80;;;12.50;99.90;;;;;;5066942;28;20043;-67
2024/03/30 01:08:07;;;;;;;1.30;0.80;;;12.50;99.90;;;;;;5086397;28;20287;-69
2024/03/30 01:10:33;;;;;;;3.38;1.13;;;12.50;99.90;;;;;;5080178;28;20032;-69
2024/03/30 01:12:59;;;;;;;1.75;1.17;;;12.50;99.90;;;;;;5079135;28;20108;-70
2024/03/30 01:15:24;;;;;;;1.48;0.77;;;12.50;99.90;;;;;;5073964;28;20028;-69
2024/03/30 01:17:50;;;;;;;0.70;0.60;;;12.40;99.90;;;;;;5077440;28;20033;-68
2024/03/30 01:20:19;;;;;;;1.17;0.90;;;12.30;99.90;;;;;;5082096;28;20051;-70
2024/03/30 01:22:45;;;;;;;2.10;0.90;;;12.30;99.90;;;;;;5084702;28;20058;-68
2024/03/30 01:25:12;;;;;;;1.20;1.05;;;12.30;99.90;;;;;;5087683;28;20024;-69
2024/03/30 01:27:38;;;;;;;1.35;0.80;;;12.30;99.90;;;;;;5072420;28;20035;-69
2024/03/30 01:30:09;;;;;;;2.47;0.88;;;12.30;99.90;;;;;;5086936;28;20063;-68
2024/03/30 01:32:36;;;;;;;2.88;0.95;;;12.40;99.90;;;;;;5073984;28;20115;-68
2024/03/30 01:35:02;;;;;;;2.17;1.05;;;12.30;99.90;;;;;;5064308;28;20033;-68
2024/03/30 01:37:28;;;;;;;1.35;1.00;;;12.30;99.90;;;;;;5079166;28;20020;-67
2024/03/30 01:39:55;;;;;;;4.78;1.00;;;12.30;99.90;;;;;;5084681;28;20081;-70
2024/03/30 01:42:30;;;;;;;1.42;0.90;;;12.20;99.90;;;;;;5063595;28;20032;-69
2024/03/30 01:44:56;;;;;;;1.73;1.13;;;12.20;99.90;;;;;;5073733;28;20062;-70
2024/03/30 01:47:24;;;;;;;1.38;0.93;;;12.20;99.90;;;;;;5087274;28;20437;-69
2024/03/30 01:49:50;;;;;;;1.50;1.15;;;12.10;99.90;;;;;;5084632;28;20102;-69
2024/03/30 01:52:20;;;;;;;2.15;0.82;;;12.20;99.90;;;;;;5086349;28;20032;-69
2024/03/30 01:54:46;;;;;;;1.30;1.00;;;12.20;99.90;;;;;;5079295;28;20105;-70
2024/03/30 01:57:13;;;;;;;1.63;1.10;;;12.10;99.90;;;;;;5067039;28;20044;-69
2024/03/30 01:59:40;;;;;;;1.90;0.98;;;12.10;99.90;;;;;;5083933;28;20020;-69
2024/03/30 02:02:09;;;;;;;2.05;1.10;;;12.10;99.90;;;;;;5090732;28;20034;-70
2024/03/30 02:04:36;;;;;;;1.17;1.00;;;12.10;99.90;;;;;;5090994;28;20077;-69
2024/03/30 02:07:02;;;;;;;1.67;0.85;;;12.00;99.90;;;;;;5081238;28;20033;-70
2024/03/30 02:09:29;;;;;;;1.52;1.27;;;11.90;99.90;;;;;;5090182;28;20028;-70
2024/03/30 02:11:54;;;;;;;1.17;1.08;;;12.00;99.90;;;;;;5091120;28;20046;-70
2024/03/30 02:14:20;;;;;;;3.40;1.10;;;11.90;99.90;;;;;;5088187;28;20119;-69
2024/03/30 02:16:46;;;;;;;2.25;1.50;;;11.90;99.90;;;;;;5085871;28;20031;-69
2024/03/30 02:19:13;;;;;;;4.82;1.63;;;11.90;99.90;;;;;;5069168;28;20052;-69
2024/03/30 02:21:39;;;;;;;3.28;1.33;;;11.90;99.90;;;;;;5081399;28;20032;-70
2024/03/30 02:24:04;;;;;;;5.90;1.60;;;11.90;99.90;;;;;;5085860;28;20029;-70
2024/03/30 02:26:30;;;;;;;1.33;1.05;;;11.80;99.90;;;;;;5086113;28;20024;-69
2024/03/30 02:28:57;;;;;;;3.78;1.67;;;11.80;99.90;;;;;;5069924;28;20024;-69
2024/03/30 02:31:23;;;;;;;4.15;1.27;;;11.70;99.90;;;;;;5080954;28;20074;-70
2024/03/30 02:33:49;;;;;;;3.08;1.40;;;11.70;99.90;;;;;;5090778;28;20047;-70
2024/03/30 02:36:15;;;;;;;1.52;1.20;;;11.70;99.90;;;;;;5090348;28;20059;-70
2024/03/30 02:38:41;;;;;;;1.75;1.40;;;11.70;99.90;;;;;;5077150;28;20032;-69
2024/03/30 02:41:07;;;;;;;5.15;1.73;;;11.60;99.90;;;;;;5080215;28;20039;-69
2024/03/30 02:43:32;;;;;;;5.93;1.60;;;11.60;99.90;;;;;;5078108;28;20059;-69
2024/03/30 02:45:58;;;;;;;3.53;1.90;;;11.60;99.90;;;;;;5087467;28;20032;-69
2024/03/30 02:48:23;;;;;;;5.45;2.10;;;11.60;99.90;;;;;;5088674;28;20039;-70
2024/03/30 02:50:49;;;;;;;3.85;1.85;;;11.50;99.90;;;;;;5081155;28;20601;-69
2024/03/30 02:53:15;;;;;;;2.67;1.80;;;11.50;99.90;;;;;;5083579;28;20040;-70
2024/03/30 02:55:40;;;;;;;2.90;1.80;;;11.50;99.90;;;;;;5069757;28;20031;-69
2024/03/30 02:58:06;;;;;;;2.70;1.65;;;11.50;99.90;;;;;;5090555;28;20028;-69
2024/03/30 03:00:31;;;;;;;3.15;1.77;;;11.40;99.90;;;;;;5085859;28;20036;-69
2024/03/30 03:02:57;;;;;;;6.45;2.00;;;11.50;99.90;;;;;;5090253;28;20440;-70
2024/03/30 03:05:22;;;;;;;2.33;1.75;;;11.40;99.90;;;;;;5089664;28;20039;-69
2024/03/30 03:07:48;;;;;;;2.80;1.80;;;11.40;99.90;;;;;;5089497;28;20032;-70
2024/03/30 03:10:14;;;;;;;3.55;1.90;;;11.40;99.90;;;;;;5084618;28;20081;-69
2024/03/30 03:12:39;;;;;;;4.78;2.10;;;11.40;99.90;;;;;;5076242;28;20170;-70
2024/03/30 03:15:06;;;;;;;4.05;2.20;;;11.40;99.90;;;;;;5065475;28;20067;-69
2024/03/30 03:17:32;;;;;;;5.45;1.85;;;11.40;99.90;;;;;;5083995;28;20162;-69
2024/03/30 03:19:57;;;;;;;4.53;2.30;;;11.40;99.90;;;;;;5084356;28;20876;-69
2024/03/30 03:22:23;;;;;;;5.15;2.42;;;11.40;99.90;;;;;;5084971;28;20039;-69
2024/03/30 03:24:48;;;;;;;7.00;2.00;;;11.30;99.90;;;;;;5081907;28;20021;-69
2024/03/30 03:27:14;;;;;;;3.50;2.03;;;11.30;99.90;;;;;;5089227;28;20622;-70
2024/03/30 03:29:40;;;;;;;4.25;1.98;;;11.30;99.90;;;;;;5086640;28;20024;-69
2024/03/30 03:32:05;;;;;;;5.20;2.15;;;11.20;99.90;;;;;;5084087;28;20041;-69
2024/03/30 03:34:31;;;;;;;5.90;1.88;;;11.20;99.90;;;;;;5079747;28;20044;-69
2024/03/30 03:36:56;;;;;;;6.05;2.20;;;11.20;99.90;;;;;;5066405;28;20037;-69
2024/03/30 03:39:23;;;;;;;3.03;1.95;;;11.20;99.90;;;;;;5078270;28;20099;-69
2024/03/30 03:41:49;;;;;;;2.53;1.85;;;11.20;99.90;;;;;;5088754;28;20028;-69
2024/03/30 03:44:14;;;;;;;4.07;2.17;;;11.20;99.90;;;;;;5088765;28;20130;-70
2024/03/30 03:46:41;;;;;;;9.57;1.75;;;11.20;99.90;;;;;;5088206;28;20070;-69
2024/03/30 03:49:07;;;;;;;5.37;1.90;;;11.10;99.90;;;;;;5089046;28;20024;-69
2024/03/30 03:51:33;;;;;;;3.20;1.63;;;11.10;99.90;;;;;;5083905;28;20283;-69
2024/03/30 03:53:58;;;;;;;2.40;1.65;;;11.10;99.90;;;;;;5079615;28;20463;-69
2024/03/30 03:56:24;;;;;;;4.95;1.73;;;11.10;99.90;;;;;;5083910;28;20023;-69
2024/03/30 03:58:49;;;;;;;3.22;1.63;;;11.10;99.90;;;;;;5079904;28;20032;-70
2024/03/30 04:01:16;;;;;;;3.55;1.75;;;11.10;99.90;;;;;;5083877;28;20818;-69
2024/03/30 04:03:42;;;;;;;6.43;1.55;;;11.10;99.90;;;;;;5093346;28;20025;-69
2024/03/30 04:06:09;;;;;;;6.70;1.60;;;11.10;99.90;;;;;;5083485;28;20038;-69
2024/03/30 04:08:35;;;;;;;2.08;1.55;;;11.10;99.90;;;;;;5088784;28;20424;-69
2024/03/30 04:11:02;;;;;;;1.63;1.30;;;11.10;99.90;;;;;;5088073;28;20036;-69
2024/03/30 04:13:27;;;;;;;1.52;1.27;;;11.00;99.90;;;;;;5084082;28;20409;-70
2024/03/30 04:15:53;;;;;;;2.95;1.48;;;11.00;99.90;;;;;;5078604;28;20028;-70
2024/03/30 04:18:19;;;;;;;1.80;1.45;;;11.10;99.90;;;;;;5078795;28;20036;-69
2024/03/30 04:20:44;;;;;;;1.63;1.33;;;11.10;99.90;;;;;;5083885;28;20039;-69
2024/03/30 04:23:10;;;;;;;2.20;1.27;;;11.00;99.90;;;;;;5082392;28;20115;-70
2024/03/30 04:25:35;;;;;;;1.77;1.30;;;11.00;99.90;;;;;;5083187;28;20063;-70
2024/03/30 04:28:01;;;;;;;3.38;1.40;;;11.00;99.90;;;;;;5085018;28;20516;-69
2024/03/30 04:30:28;;;;;;;2.70;1.70;;;10.90;99.90;;;;;;5088825;28;20097;-69
2024/03/30 04:32:53;;;;;;;4.13;1.70;;;10.90;99.90;;;;;;5088158;28;20606;-70
2024/03/30 04:35:19;;;;;;;2.22;1.38;;;10.90;99.90;;;;;;5088127;28;20036;-69
2024/03/30 04:37:44;;;;;;;2.80;1.40;;;10.80;99.90;;;;;;5085405;28;20016;-69
2024/03/30 04:40:10;;;;;;;1.40;1.30;;;10.80;99.90;;;;;;5087295;28;20170;-69
2024/03/30 04:42:36;;;;;;;3.80;1.67;;;10.80;99.90;;;;;;5068449;28;20024;-70
2024/03/30 04:45:01;;;;;;;5.03;2.55;;;10.80;99.90;;;;;;5078975;28;20031;-70
2024/03/30 04:47:27;;;;;;;9.75;2.47;;;10.80;99.90;;;;;;5087909;28;20028;-70
2024/03/30 04:49:53;;;;;;;4.40;2.33;;;10.70;99.90;;;;;;5070669;28;20027;-70
2024/03/30 04:52:18;;;;;;;3.13;1.92;;;10.60;99.90;;;;;;5092073;28;20113;-70
2024/03/30 04:54:44;;;;;;;3.15;2.05;;;10.70;99.90;;;;;;5086628;28;20532;-70
2024/03/30 04:57:10;;;;;;;4.10;2.15;;;10.60;99.90;;;;;;5087840;28;20035;-69
2024/03/30 04:59:35;;;;;;;3.50;1.85;;;10.70;99.90;;;;;;5074510;28;20115;-66
2024/03/30 05:02:02;;;;;;;2.47;1.50;;;10.70;99.90;;;;;;5082795;28;20627;-66
2024/03/30 05:04:27;;;;;;;4.65;2.35;;;10.70;99.90;;;;;;5081185;28;20077;-66
2024/03/30 05:06:53;;;;;;;5.55;2.38;;;10.70;99.90;;;;;;5072648;28;20429;-66
2024/03/30 05:09:18;;;;;;;3.13;2.13;;;10.70;99.90;;;;;;5082569;28;20028;-66
2024/03/30 05:11:44;;;;;;;3.70;2.40;;;10.70;99.90;;;;;;5084420;28;20039;-67
2024/03/30 05:14:09;;;;;;;8.50;2.47;;;10.70;99.90;;;;;;5081400;28;20039;-64
2024/03/30 05:16:35;;;;;;;3.80;2.47;;;10.70;99.90;;;;;;5073719;28;20481;-67
2024/03/30 05:19:09;;;;;;;3.38;2.70;;;10.70;99.90;;;;;;5073180;28;20033;-66
2024/03/30 05:21:35;;;;;;;4.63;2.70;;;10.70;99.90;;;;;;5083801;28;20082;-66
2024/03/30 05:24:01;;;;;;;4.43;2.75;;;10.70;99.90;;;;;;5080258;28;20057;-67
2024/03/30 05:26:26;;;;;;;3.65;2.35;;;10.70;99.90;;;;;;5087181;28;20028;-66
2024/03/30 05:28:52;;;;;;;5.18;2.63;;;10.70;99.90;;;;;;5077654;28;20030;-67
2024/03/30 05:31:22;;;;;;;4.55;2.65;;;10.70;99.90;;;;;;5087308;28;20499;-66
2024/03/30 05:33:47;;;;;;;6.53;2.85;;;10.70;99.90;;;;;;5087189;28;20020;-67
2024/03/30 05:36:14;;;;;;;4.60;3.10;;;10.70;99.90;;;;;;5086933;28;20400;-66
2024/03/30 05:38:40;;;;;;;5.13;2.85;;;10.70;99.90;;;;;;5083204;28;20024;-66
2024/03/30 05:41:06;;;;;;;6.10;2.90;;;10.80;99.90;;;;;;5087325;28;20560;-66
2024/03/30 05:43:31;;;;;;;5.22;2.78;;;10.70;99.90;;;;;;5068151;28;20107;-67
2024/03/30 05:45:57;;;;;;;3.40;2.53;;;10.70;99.90;;;;;;5079286;28;20116;-66
2024/03/30 05:48:23;;;;;;;4.35;2.88;;;10.80;99.90;;;;;;5082324;28;20054;-66
2024/03/30 05:50:49;;;;;;;6.28;2.58;;;10.80;99.90;;;;;;5063586;28;20025;-66
2024/03/30 05:53:15;;;;;;;5.97;2.60;;;10.80;99.90;;;;;;5082126;28;20043;-66
2024/03/30 05:55:41;;;;;;;6.97;2.83;;;10.80;99.90;;;;;;5086150;28;20024;-66
2024/03/30 05:58:09;;;;;;;5.15;2.70;;;10.80;99.90;;;;;;5087291;28;20044;-67
2024/03/30 06:00:35;;;;;;;;;;;10.80;99.90;;;;;;5070653;28;20761;-66
2024/03/30 06:03:01;;;;;;;4.05;3.00;;;10.90;99.90;;;;;;5077602;28;19919;-66
2024/03/30 06:05:26;;;;;;;4.75;3.05;;;10.90;99.90;;;;;;5076944;28;20107;-66
2024/03/30 06:07:52;;;;;;;4.40;2.33;;;10.90;99.90;;;;;;5081872;28;20757;-66
2024/03/30 06:10:17;;;;;;;5.05;2.35;;;10.90;99.90;;;;;;5077095;28;20600;-66
2024/03/30 06:12:43;;;;;;;3.30;2.50;;;11.00;99.90;;;;;;5077650;28;20059;-66
2024/03/30 06:15:09;;;;;;;6.68;2.83;;;11.00;99.90;;;;;;5086850;28;20385;-66
2024/03/30 06:17:35;;;;;;;5.75;2.65;;;11.00;99.90;;;;;;5086086;28;20056;-66
2024/03/30 06:20:05;;;;;;;3.22;2.83;;;11.00;99.90;;;;;;5086956;28;20032;-65
2024/03/30 06:22:31;;;;;;;4.47;2.80;;;11.10;99.90;;;;;;5086985;28;20491;-65
2024/03/30 06:24:57;;;;;;;4.25;2.80;;;11.00;99.90;;;;;;5086107;28;20032;-64
2024/03/30 06:27:23;;;;;;;5.45;2.65;;;11.00;99.90;;;;;;5069828;28;20035;-65
2024/03/30 06:29:48;;;;;;;6.47;2.80;;;11.00;99.90;;;;;;5069334;28;20040;-65
2024/03/30 06:32:14;;;;;;;9.20;2.63;;;11.10;99.90;;;;;;5081048;28;20420;-66
2024/03/30 06:34:39;;;;;;;6.70;2.70;;;11.10;99.90;;;;;;5076187;28;20017;-65
2024/03/30 06:37:05;;;;;;;3.60;2.65;;;11.10;99.90;;;;;;5060145;28;20025;-65
2024/03/30 06:45:16;;;;;;;5.30;2.92;;;11.30;99.90;;;;;;5027158;28;20041;-65
2024/03/30 06:47:42;;;;;;;6.95;2.78;;;11.30;99.90;;;;;;5072536;28;20016;-65
2024/03/30 06:50:08;;;;;;;4.22;2.80;;;11.30;99.90;;;;;;5088738;28;20119;-65
2024/03/30 06:52:33;;;;;;;3.70;2.72;;;11.30;99.90;;;;;;5068178;28;20025;-65
2024/03/30 06:54:59;;;;;;;7.10;2.80;;;11.30;99.90;;;;;;5077938;28;20119;-65
2024/03/30 06:57:25;;;;;;;6.88;3.00;;;11.30;99.90;;;;;;5085321;28;20086;-65
2024/03/30 06:59:50;;;;;;;6.32;2.97;;;11.30;99.90;;;;;;5083851;28;20749;-65
2024/03/30 07:02:17;;;;;;;5.40;2.92;;;11.40;99.90;;;;;;5090528;28;20024;-65
2024/03/30 07:04:43;;;;;;;5.18;2.80;;;11.40;99.90;;;;;;5073326;28;20384;-65
2024/03/30 07:07:08;;;;;;;7.53;2.97;;;11.40;99.90;;;;;;5081337;28;20081;-65
2024/03/30 07:09:34;;;;;;;6.75;3.22;;;11.40;99.90;;;;;;5082089;28;20017;-65
2024/03/30 07:12:00;;;;;;;5.85;3.03;;;11.50;99.90;;;;;;5084781;28;20024;-65
2024/03/30 07:14:25;;;;;;;4.72;2.78;;;11.70;99.90;;;;;;5086760;28;20398;-65
2024/03/30 07:16:55;;;;;;;7.60;3.03;;;11.60;99.90;;;;;;5076691;28;20073;-65
2024/03/30 07:19:20;;;;;;;6.60;3.33;;;11.60;99.90;;;;;;5087713;28;20107;-65
2024/03/30 07:21:46;;;;;;;8.80;2.85;;;11.70;99.90;;;;;;5082789;28;20123;-65
2024/03/30 07:24:11;;;;;;;8.73;2.90;;;11.70;99.90;;;;;;5084257;28;20111;-65
2024/03/30 07:26:37;;;;;;;3.95;2.83;;;11.80;99.90;;;;;;5086409;28;20032;-65
2024/03/30 07:29:05;;;;;;;8.73;3.00;;;12.00;99.90;;;;;;5070263;28;20060;-65
2024/03/30 07:31:30;;;;;;;7.28;2.72;;;11.90;99.90;;;;;;5071612;28;20028;-65
2024/03/30 07:33:56;;;;;;;14.48;2.70;;;12.00;99.90;;;;;;5085619;28;20070;-65
2024/03/30 07:36:21;;;;;;;7.60;3.13;;;12.10;99.90;;;;;;5076850;28;20027;-65
2024/03/30 07:38:47;;;;;;;14.82;2.70;;;12.10;99.90;;;;;;5085389;28;20020;-66
2024/03/30 07:41:12;;;;;;;7.10;2.92;;;12.20;99.90;;;;;;5079963;28;20021;-66
2024/03/30 07:43:38;;;;;;;11.55;2.55;;;12.20;99.90;;;;;;5084135;28;20035;-64
2024/03/30 07:46:05;;;;;;;10.38;2.30;;;12.30;99.90;;;;;;5084571;28;20097;-65
2024/03/30 07:48:30;;;;;;;22.95;3.28;;;12.30;99.90;;;;;;5079221;28;20046;-66
2024/03/30 07:50:56;;;;;;;13.20;2.42;;;12.30;99.90;;;;;;5084012;28;20482;-66
2024/03/30 07:53:22;;;;;;;17.75;2.55;;;12.40;99.90;;;;;;5082143;28;20031;-67
2024/03/30 07:55:48;;;;;;;18.42;2.03;;;12.50;99.90;;;;;;5084385;28;20181;-66
2024/03/30 07:58:13;;;;;;;12.65;2.47;;;12.60;99.90;;;;;;5078814;28;20024;-66
2024/03/30 08:00:39;;;;;;;8.30;1.85;;;12.60;99.90;;;;;;5082084;28;20017;-65
2024/03/30 08:03:04;;;;;;;7.07;1.95;;;12.70;99.90;;;;;;5076555;28;20544;-66
2024/03/30 08:05:31;;;;;;;7.20;1.70;;;12.80;99.90;;;;;;5088215;28;20021;-66
2024/03/30 08:07:57;;;;;;;5.88;1.90;;;13.00;99.90;;;;;;5084036;28;20020;-66
2024/03/30 08:10:23;;;;;;;5.78;1.50;;;13.00;99.90;;;;;;5085509;28;20032;-65
2024/03/30 08:12:49;;;;;;;2.72;1.30;;;13.10;99.90;;;;;;5087657;28;20040;-66
2024/03/30 08:15:15;;;;;;;2.55;1.38;;;13.20;99.90;;;;;;5084334;28;20123;-66
2024/03/30 08:17:41;;;;;;;5.43;1.80;;;13.20;99.90;;;;;;5088703;28;20264;-65
2024/03/30 08:20:08;;;;;;;4.53;1.85;;;13.30;99.90;;;;;;5088206;28;20032;-66
2024/03/30 08:22:35;;;;;;;6.25;1.58;;;13.50;99.90;;;;;;5065318;28;20422;-66
2024/03/30 08:25:00;;;;;;;3.13;1.30;;;13.50;99.90;;;;;;5072992;28;20047;-66
2024/03/30 08:27:26;;;;;;;2.47;1.38;;;13.80;99.90;;;;;;5078462;28;20054;-66
2024/03/30 08:29:51;;;;;;;2.70;1.02;;;13.80;99.90;;;;;;5086277;28;20035;-65
2024/03/30 08:32:17;;;;;;;2.90;1.05;;;13.90;99.90;;;;;;5083030;28;20040;-66
2024/03/30 08:34:42;;;;;;;3.75;1.00;;;13.90;99.90;;;;;;5087794;28;20026;-66
2024/03/30 08:37:08;;;;;;;3.22;1.25;;;14.00;99.90;;;;;;5072020;28;20055;-65
2024/03/30 08:39:34;;;;;;;5.60;1.52;;;14.00;99.90;;;;;;5087837;28;20032;-65
2024/03/30 08:41:59;;;;;;;8.68;1.50;;;14.20;99.90;;;;;;5088174;28;20111;-66
2024/03/30 08:44:25;;;;;;;3.28;1.00;;;14.30;99.90;;;;;;5084698;28;20035;-66
2024/03/30 08:46:51;;;;;;;3.00;0.98;;;14.40;99.90;;;;;;5085063;28;20448;-66
2024/03/30 08:49:17;;;;;;;7.10;1.63;;;14.50;99.90;;;;;;5087768;28;20028;-66
2024/03/30 08:51:42;;;;;;;4.85;1.38;;;14.60;99.90;;;;;;5075126;28;20029;-66
2024/03/30 08:54:08;;;;;;;4.20;1.13;;;14.70;99.90;;;;;;5082005;28;20036;-65
2024/03/30 08:56:36;;;;;;;7.72;1.33;;;14.80;99.90;;;;;;5070828;28;20089;-66
2024/03/30 08:59:01;;;;;;;10.48;1.45;;;14.90;99.90;;;;;;5087749;28;20109;-66
2024/03/30 09:01:29;;;;;;;7.10;1.67;;;15.00;99.90;;;;;;5088087;28;20052;-66
2024/03/30 09:03:55;;;;;;;9.30;1.70;;;15.10;99.90;;;;;;5087774;28;20038;-65
2024/03/30 09:06:21;;;;;;;6.65;1.50;;;15.20;99.90;;;;;;5079627;28;20032;-65
2024/03/30 09:08:47;;;;;;;11.35;1.40;;;15.40;99.90;;;;;;5071184;28;20040;-65
2024/03/30 09:11:13;;;;;;;6.60;1.50;;;15.50;99.90;;;;;;5087477;28;20032;-66
2024/03/30 09:13:38;;;;;;;9.10;1.60;;;15.70;99.90;;;;;;5079079;28;20434;-66
2024/03/30 09:16:04;;;;;;;11.82;1.42;;;15.80;99.90;;;;;;5082755;28;20024;-66
2024/03/30 09:18:30;;;;;;;7.70;1.35;;;15.90;99.90;;;;;;5081113;28;20559;-66
2024/03/30 09:20:58;;;;;;;6.93;1.17;;;16.10;99.90;;;;;;5082581;28;20036;-66
2024/03/30 09:23:26;;;;;;;13.98;2.42;;;16.20;99.90;;;;;;5084470;28;20493;-67
2024/03/30 09:25:53;;;;;;;8.40;1.33;;;16.30;99.90;;;;;;5081750;28;20755;-66
2024/03/30 09:28:19;;;;;;;14.20;1.73;;;16.40;99.90;;;;;;5076990;28;20043;-66
2024/03/30 09:30:44;;;;;;;11.43;2.08;;;16.50;99.90;;;;;;5073967;28;20497;-66
2024/03/30 09:33:10;;;;;;;18.95;2.22;;;16.60;99.90;;;;;;5080432;28;20607;-67
2024/03/30 09:35:39;;;;;;;14.15;2.00;;;16.60;99.90;;;;;;5075629;28;20025;-67
2024/03/30 09:38:05;;;;;;;16.02;2.15;;;16.70;99.90;;;;;;5063528;28;20049;-67
2024/03/30 09:40:33;;;;;;;12.68;2.60;;;16.80;99.90;;;;;;5080445;28;20516;-66
2024/03/30 09:42:59;;;;;;;16.92;1.83;;;16.90;99.90;;;;;;5085708;28;20043;-67
2024/03/30 09:45:27;;;;;;;19.08;2.45;;;17.00;99.90;;;;;;5086937;28;20024;-66
2024/03/30 09:47:56;;;;;;;10.68;1.90;;;17.10;99.90;;;;;;5064941;28;20032;-66
2024/03/30 09:50:23;;;;;;;15.65;2.20;;;17.20;99.90;;;;;;5075908;28;20036;-67
2024/03/30 09:52:51;;;;;;;9.52;2.38;;;17.40;99.90;;;;;;5081842;28;20024;-66
2024/03/30 09:55:18;;;;;;;13.18;2.22;;;17.50;99.90;;;;;;5076562;28;20109;-67
2024/03/30 09:57:50;;;;;;;13.60;1.90;;;17.70;99.90;;;;;;5064385;28;20025;-67
2024/03/30 10:00:17;;;;;;;11.85;2.22;;;17.80;99.90;;;;;;5080854;28;20104;-67
2024/03/30 10:02:46;;;;;;;19.95;2.05;;;17.90;99.90;;;;;;5078259;28;20048;-67
2024/03/30 10:05:12;;;;;;;19.10;2.10;;;18.00;99.90;;;;;;5070408;28;20032;-67
2024/03/30 10:07:47;;;;;;;22.15;2.42;;;18.00;99.90;;;;;;5076701;28;20043;-67
2024/03/30 10:10:16;;;;;;;20.20;2.40;;;18.00;99.90;;;;;;5086929;28;20021;-69
2024/03/30 10:12:59;;;;;;;19.95;3.10;;;18.00;99.90;;;;;;5079140;28;20059;-67
2024/03/30 10:15:34;;;;;;;18.98;2.92;;;18.00;99.70;;;;;;5068088;28;20032;-65
2024/03/30 10:18:00;;;;;;;18.08;3.60;;;18.00;99.40;;;;;;5085470;28;20020;-64
2024/03/30 10:20:26;;;;;;;22.35;2.92;;;18.00;99.30;;;;;;5085595;28;20468;-65
2024/03/30 10:22:51;;;;;;;23.45;3.05;;;17.90;98.30;;;;;;5077573;28;20489;-67
2024/03/30 10:25:18;;;;;;;26.45;3.42;;;17.90;99.10;;;;;;5080757;28;20028;-67
2024/03/30 10:27:45;;;;;;;25.38;2.63;;;18.00;99.10;;;;;;5065956;28;20036;-67
2024/03/30 10:30:11;;;;;;;28.30;3.65;;;17.90;98.20;;;;;;5076975;28;20036;-67
2024/03/30 10:32:40;;;;;;;28.80;3.15;;;17.90;98.30;;;;;;5090155;28;20035;-67
2024/03/30 10:35:07;;;;;;;25.48;3.15;;;17.90;98.30;;;;;;5085855;28;20044;-67
2024/03/30 10:37:36;;;;;;;28.60;3.67;;;18.00;97.40;;;;;;5078502;28;20028;-67
2024/03/30 10:40:09;;;;;;;12.23;2.60;;;17.90;97.80;;;;;;5084375;28;20028;-67
2024/03/30 10:42:37;;;;;;;19.83;2.80;;;18.00;97.90;;;;;;5081644;28;20032;-67
2024/03/30 10:45:03;;;;;;;15.55;3.03;;;18.00;97.80;;;;;;5064081;28;20026;-67
2024/03/30 10:47:29;;;;;;;19.80;3.15;;;18.00;97.80;;;;;;5079004;28;20052;-67
2024/03/30 10:49:58;;;;;;;26.77;4.05;;;18.00;98.00;;;;;;5086762;28;20028;-67
2024/03/30 10:52:27;;;;;;;21.90;2.85;;;18.00;97.70;;;;;;5086949;28;20032;-67
2024/03/30 10:54:58;;;;;;;19.60;3.13;;;18.00;97.30;;;;;;5089084;28;20534;-66
2024/03/30 10:57:25;;;;;;;29.65;3.90;;;18.00;97.60;;;;;;5087988;28;20029;-66
2024/03/30 10:59:52;;;;;;;14.23;2.88;;;17.90;97.60;;;;;;5087187;28;20623;-66
2024/03/30 11:02:22;;;;;;;25.40;3.30;;;17.90;97.40;;;;;;5089844;28;20029;-66
2024/03/30 11:04:50;;;;;;;13.00;2.20;;;17.90;97.20;;;;;;5090053;28;20046;-67
2024/03/30 11:07:16;;;;;;;29.13;3.47;;;17.90;97.40;;;;;;5071471;28;20379;-66
2024/03/30 11:09:43;;;;;;;26.98;2.88;;;17.90;97.90;;;;;;5086177;28;20071;-66
2024/03/30 11:12:10;;;;;;;26.25;2.95;;;17.90;98.00;;;;;;5088429;28;20578;-66
2024/03/30 11:14:36;;;;;;;20.90;3.15;;;17.90;98.30;;;;;;5089204;28;20120;-66
2024/03/30 11:17:13;;;;;;;22.60;2.90;;;18.00;98.60;;;;;;5088320;28;20055;-66
2024/03/30 11:19:45;;;;;;;29.10;3.67;;;18.00;98.30;;;;;;5086045;28;20016;-66
2024/03/30 11:22:21;;;;;;;33.95;4.32;;;18.00;98.60;;;;;;5079998;28;20081;-67
2024/03/30 11:24:58;;;;;;;25.55;4.10;;;18.00;98.60;;;;;;5076542;28;20051;-66
2024/03/30 11:27:28;;;;;;;26.33;2.97;;;17.90;98.40;;;;;;5085658;28;20032;-66
2024/03/30 11:30:23;;;;;;;23.42;3.13;;;18.00;98.60;;;;;;5076933;28;20029;-66
2024/03/30 11:33:00;;;;;;;21.90;2.70;;;18.00;99.00;;;;;;5072272;28;20044;-67
2024/03/30 11:35:29;;;;;;;24.95;3.58;;;18.00;98.80;;;;;;5072913;28;20028;-67
2024/03/30 11:37:59;;;;;;;23.50;3.08;;;18.00;98.10;;;;;;5089461;28;20016;-67
2024/03/30 11:40:37;;;;;;;26.05;3.55;;;18.00;98.00;;;;;;5087763;28;20103;-66
2024/03/30 11:43:34;;;;;;;31.27;4.32;;;18.00;98.00;;;;;;5087996;28;20147;-66
2024/03/30 11:46:01;;;;;;;23.15;3.58;;;18.00;98.60;;;;;;5088073;28;20085;-67
2024/03/30 11:48:27;;;;;;;26.52;3.58;;;18.00;98.80;;;;;;5086743;28;20035;-66
2024/03/30 11:50:54;;;;;;;22.25;2.95;;;17.80;98.80;;;;;;5081537;28;20035;-66
2024/03/30 11:53:19;;;;;;;30.20;4.30;;;17.80;99.10;;;;;;5088204;28;20025;-66
2024/03/30 11:55:49;;;;;;;28.38;3.40;;;17.80;99.50;;;;;;5080367;28;20040;-67
2024/03/30 11:58:23;;;;;;;25.02;2.67;;;17.80;99.90;;;;;;5084874;28;20039;-65
2024/03/30 12:00:52;;;;;;;28.55;3.22;;;17.80;99.90;;;;;;5089607;28;20082;-66
2024/03/30 12:03:18;;;;;;;26.23;3.72;;;17.80;99.90;;;;;;5065188;28;20224;-66
2024/03/30 12:05:47;;;;;;;30.50;4.43;;;17.80;99.90;;;;;;5084381;28;20029;-66
2024/03/30 12:08:14;;;;;;;31.23;4.00;;;17.60;99.90;;;;;;5072808;28;20032;-66
2024/03/30 12:10:52;;;;;;;28.73;3.95;;;17.50;99.90;;;;;;5067344;28;20251;-66
2024/03/30 12:13:28;;;;;;;25.85;3.30;;;17.50;99.90;;;;;;5083198;28;20035;-66
2024/03/30 12:15:55;;;;;;;20.23;3.38;;;17.40;99.90;;;;;;5080062;28;20527;-66
2024/03/30 12:18:22;;;;;;;21.85;4.18;;;17.50;99.90;;;;;;5076422;28;20291;-66
2024/03/30 12:20:49;;;;;;;26.15;4.65;;;17.50;99.90;;;;;;5088053;28;20226;-66
2024/03/30 12:23:17;;;;;;;37.95;4.78;;;17.50;99.90;;;;;;5087784;28;20115;-66
2024/03/30 12:25:44;;;;;;;20.27;3.22;;;17.50;99.90;;;;;;5088533;28;20077;-66
2024/03/30 12:28:09;;;;;;;23.95;3.70;;;17.50;99.90;;;;;;5089027;28;20123;-66
2024/03/30 12:30:50;;;;;;;36.05;3.65;;;17.50;99.90;;;;;;5088128;28;20103;-66
2024/03/30 12:33:16;;;;;;;25.33;3.33;;;17.50;99.90;;;;;;5077538;28;20036;-66
2024/03/30 12:35:43;;;;;;;23.95;4.05;;;17.50;99.90;;;;;;5079460;28;20082;-66
2024/03/30 12:38:15;;;;;;;23.40;3.47;;;17.40;99.90;;;;;;5084013;28;21462;-66
2024/03/30 12:40:43;;;;;;;21.17;4.15;;;17.50;99.90;;;;;;5079815;28;20017;-66
2024/03/30 12:43:11;;;;;;;19.65;3.70;;;17.50;99.90;;;;;;5087107;28;21390;-66
2024/03/30 12:45:37;;;;;;;26.00;4.50;;;17.50;99.90;;;;;;5085615;28;20035;-66